Time;durP1;ratioP1;P1;durP2;ratioP2;P2;SDS_P1;SDS_P2;PMS_P1;PMS_P2;Temp;Humidity;BMP_temperature;BMP_pressure;BME280_temperature;BME280_humidity;BME280_pressure;Samples;Min_cycle;Max_cycle;Signal;HPM_P1;HPM_P2
2024/02/01 00:00:25;;;;;;;6.20;3.20;;;9.20;99.90;;;;;;5020657;28;20559;-61
2024/02/01 00:02:52;;;;;;;4.73;4.30;;;9.20;99.90;;;;;;5023355;28;20186;-60
2024/02/01 00:05:18;;;;;;;4.25;3.80;;;9.30;99.90;;;;;;5015574;28;20175;-61
2024/02/01 00:07:44;;;;;;;4.03;3.45;;;9.30;99.90;;;;;;5025170;28;20210;-61
2024/02/01 00:10:10;;;;;;;9.03;3.67;;;9.40;99.90;;;;;;5024903;28;20210;-61
2024/02/01 00:12:35;;;;;;;4.73;4.23;;;9.40;99.90;;;;;;5027798;28;20183;-61
2024/02/01 00:15:01;;;;;;;5.83;4.30;;;9.30;99.90;;;;;;5013644;28;20175;-61
2024/02/01 00:17:27;;;;;;;5.03;3.63;;;9.30;99.90;;;;;;5023700;28;20252;-61
2024/02/01 00:19:52;;;;;;;6.03;4.17;;;9.40;99.90;;;;;;5031471;28;20175;-61
2024/02/01 00:22:18;;;;;;;7.00;5.10;;;9.40;99.90;;;;;;5031344;28;20181;-61
2024/02/01 00:24:43;;;;;;;5.87;5.23;;;9.30;99.90;;;;;;5031701;28;20171;-61
2024/02/01 00:27:09;;;;;;;6.73;4.03;;;9.20;99.90;;;;;;5031398;28;20680;-61
2024/02/01 00:29:34;;;;;;;5.23;3.53;;;9.10;99.90;;;;;;5031484;28;20237;-61
2024/02/01 00:32:00;;;;;;;6.63;4.50;;;9.20;99.90;;;;;;5031647;28;20250;-61
2024/02/01 00:34:26;;;;;;;9.30;5.20;;;9.30;99.90;;;;;;5031436;28;20629;-61
2024/02/01 00:36:51;;;;;;;5.57;4.70;;;9.30;99.90;;;;;;5031562;28;20197;-61
2024/02/01 00:39:17;;;;;;;8.20;5.53;;;9.30;99.90;;;;;;5031506;28;20174;-61
2024/02/01 00:41:43;;;;;;;7.13;5.40;;;9.20;99.90;;;;;;5031134;28;20179;-61
2024/02/01 00:44:08;;;;;;;9.83;4.20;;;9.30;99.90;;;;;;5031077;28;20242;-61
2024/02/01 00:46:34;;;;;;;7.83;5.03;;;9.30;99.90;;;;;;5013460;28;20199;-61
2024/02/01 00:49:00;;;;;;;7.30;4.30;;;9.40;99.90;;;;;;5031478;28;20217;-61
2024/02/01 00:51:25;;;;;;;4.80;3.70;;;9.40;99.90;;;;;;5031373;28;20409;-61
2024/02/01 00:53:51;;;;;;;8.53;4.77;;;9.40;99.90;;;;;;5031348;28;20174;-61
2024/02/01 00:56:17;;;;;;;9.27;4.40;;;9.40;99.90;;;;;;5031369;28;20596;-61
2024/02/01 00:58:42;;;;;;;17.13;5.83;;;9.40;99.90;;;;;;5031380;28;20170;-61
2024/02/01 01:01:08;;;;;;;9.67;5.87;;;9.30;99.90;;;;;;5031166;28;20174;-61
2024/02/01 01:03:34;;;;;;;9.90;5.70;;;9.40;99.90;;;;;;5031283;28;20175;-61
2024/02/01 01:05:59;;;;;;;6.27;4.60;;;9.40;99.90;;;;;;5031071;28;20526;-61
2024/02/01 01:08:25;;;;;;;10.37;6.23;;;9.30;99.90;;;;;;5031113;28;20599;-61
2024/02/01 01:10:50;;;;;;;6.07;4.60;;;9.30;99.90;;;;;;5031224;28;20173;-61
2024/02/01 01:13:16;;;;;;;5.87;5.27;;;9.40;99.90;;;;;;5031027;28;20175;-61
2024/02/01 01:15:42;;;;;;;6.70;4.70;;;9.30;99.90;;;;;;5031225;28;20651;-61
2024/02/01 01:18:07;;;;;;;7.97;5.10;;;9.20;99.90;;;;;;5031274;28;20167;-61
2024/02/01 01:20:33;;;;;;;6.30;4.83;;;9.30;99.90;;;;;;5030941;28;20171;-61
2024/02/01 01:22:59;;;;;;;5.43;4.20;;;9.20;99.90;;;;;;5030810;28;20181;-61
2024/02/01 01:25:24;;;;;;;10.20;5.67;;;9.10;99.90;;;;;;5031087;28;20445;-61
2024/02/01 01:27:51;;;;;;;10.00;5.23;;;9.10;99.90;;;;;;5030825;28;20206;-61
2024/02/01 01:30:16;;;;;;;8.23;6.15;;;9.20;99.90;;;;;;5030726;28;20206;-61
2024/02/01 01:32:42;;;;;;;9.40;4.47;;;9.20;99.90;;;;;;5030668;28;20181;-61
2024/02/01 01:35:08;;;;;;;8.77;4.90;;;9.30;99.90;;;;;;5030982;28;20222;-61
2024/02/01 01:37:33;;;;;;;6.40;4.97;;;9.10;99.90;;;;;;5030760;28;20194;-61
2024/02/01 01:39:59;;;;;;;6.13;4.77;;;9.20;99.90;;;;;;5032879;28;20256;-61
2024/02/01 01:42:25;;;;;;;8.23;5.40;;;9.20;99.90;;;;;;5034248;28;20961;-61
2024/02/01 01:44:50;;;;;;;7.37;5.40;;;9.20;99.90;;;;;;5034733;28;20175;-61
2024/02/01 01:47:16;;;;;;;7.27;6.00;;;9.10;99.90;;;;;;5034273;28;20195;-61
2024/02/01 01:49:42;;;;;;;8.10;5.43;;;9.10;99.90;;;;;;5034172;28;20217;-61
2024/02/01 01:52:10;;;;;;;10.13;6.95;;;9.00;99.90;;;;;;5033996;28;20167;-61
2024/02/01 01:54:37;;;;;;;9.05;6.57;;;8.90;99.90;;;;;;5034228;28;20170;-61
2024/02/01 01:57:04;;;;;;;8.15;7.35;;;8.90;99.90;;;;;;5034130;28;20194;-61
2024/02/01 01:59:30;;;;;;;9.48;6.07;;;9.00;99.90;;;;;;5034241;28;20182;-61
2024/02/01 02:01:58;;;;;;;8.60;7.23;;;9.10;99.90;;;;;;5033994;28;20416;-61
2024/02/01 02:04:24;;;;;;;12.50;7.55;;;9.20;99.90;;;;;;5034118;28;20744;-61
2024/02/01 02:06:55;;;;;;;9.27;6.30;;;9.00;99.90;;;;;;5034080;28;20191;-61
2024/02/01 02:09:21;;;;;;;8.35;6.05;;;9.00;99.90;;;;;;5033804;28;20198;-61
2024/02/01 02:11:47;;;;;;;5.93;5.40;;;9.10;99.90;;;;;;5033601;28;20250;-61
2024/02/01 02:14:16;;;;;;;11.00;6.27;;;9.00;99.90;;;;;;5033878;28;20266;-61
2024/02/01 02:16:43;;;;;;;8.70;5.72;;;9.00;99.90;;;;;;5033635;28;20201;-61
2024/02/01 02:19:09;;;;;;;7.40;5.88;;;8.90;99.90;;;;;;5033926;28;20233;-61
2024/02/01 02:21:46;;;;;;;9.25;5.05;;;8.90;99.90;;;;;;5033725;28;20668;-61
2024/02/01 02:24:16;;;;;;;6.85;6.13;;;9.00;99.90;;;;;;5033603;28;20197;-61
2024/02/01 02:26:45;;;;;;;7.00;4.85;;;9.00;99.90;;;;;;5096874;22;20227;-58
2024/02/01 02:29:15;;;;;;;7.97;5.05;;;9.10;99.90;;;;;;5072461;28;20213;-58
2024/02/01 02:31:46;;;;;;;5.07;4.15;;;9.10;99.90;;;;;;5073038;28;20158;-58
2024/02/01 02:34:12;;;;;;;8.20;4.70;;;9.10;99.90;;;;;;5073319;28;20526;-58
2024/02/01 02:36:38;;;;;;;7.90;4.45;;;9.10;99.90;;;;;;5073198;28;20198;-58
2024/02/01 02:39:04;;;;;;;6.63;5.20;;;9.20;99.90;;;;;;5073154;28;20184;-58
2024/02/01 02:41:29;;;;;;;5.70;5.13;;;9.20;99.90;;;;;;5055045;28;20610;-58
2024/02/01 02:43:57;;;;;;;8.63;6.30;;;9.40;99.90;;;;;;5072887;28;20181;-58
2024/02/01 02:46:25;;;;;;;8.50;6.18;;;9.40;99.90;;;;;;5073159;28;20194;-58
2024/02/01 02:48:51;;;;;;;9.65;6.13;;;9.40;99.90;;;;;;5072965;28;20682;-58
2024/02/01 02:51:16;;;;;;;7.93;6.00;;;9.30;99.90;;;;;;5071702;28;20205;-58
2024/02/01 02:53:42;;;;;;;8.57;6.70;;;9.20;99.90;;;;;;5072620;28;20403;-58
2024/02/01 02:56:08;;;;;;;8.63;6.37;;;9.20;99.90;;;;;;5073042;28;20654;-58
2024/02/01 02:58:38;;;;;;;7.88;5.53;;;9.20;99.90;;;;;;5072950;28;20172;-58
2024/02/01 03:01:07;;;;;;;10.20;5.45;;;9.30;99.90;;;;;;5072611;28;20181;-58
2024/02/01 03:03:42;;;;;;;6.70;5.13;;;9.30;99.90;;;;;;5054562;28;20177;-58
2024/02/01 03:06:08;;;;;;;11.40;5.50;;;9.30;99.90;;;;;;5072477;28;20185;-58
2024/02/01 03:08:34;;;;;;;11.07;6.63;;;9.30;99.90;;;;;;5072507;28;20249;-58
2024/02/01 03:10:59;;;;;;;7.27;5.73;;;9.10;99.90;;;;;;5072488;28;20169;-58
2024/02/01 03:13:25;;;;;;;7.25;6.10;;;9.00;99.90;;;;;;5054474;28;20224;-58
2024/02/01 03:15:52;;;;;;;12.77;6.03;;;9.00;99.90;;;;;;5072482;28;20244;-61
2024/02/01 03:18:17;;;;;;;6.53;5.70;;;9.10;99.90;;;;;;5072341;28;20196;-61
2024/02/01 03:20:44;;;;;;;7.47;5.77;;;9.10;99.90;;;;;;5072056;28;20253;-61
2024/02/01 03:23:10;;;;;;;6.30;5.13;;;9.10;99.90;;;;;;5072389;28;20648;-61
2024/02/01 03:25:39;;;;;;;8.57;5.20;;;9.20;99.90;;;;;;5072214;28;20530;-61
2024/02/01 03:28:05;;;;;;;6.95;5.70;;;9.20;99.90;;;;;;5054121;28;20629;-61
2024/02/01 03:30:32;;;;;;;5.95;5.13;;;9.10;99.90;;;;;;5072460;28;20638;-61
2024/02/01 03:33:01;;;;;;;7.07;5.60;;;9.20;99.90;;;;;;5071823;28;20177;-61
2024/02/01 03:35:27;;;;;;;4.78;4.38;;;9.20;99.90;;;;;;5072169;28;20180;-61
2024/02/01 03:37:53;;;;;;;4.97;4.32;;;9.20;99.90;;;;;;5071979;28;20194;-61
2024/02/01 03:40:19;;;;;;;7.27;5.63;;;9.20;99.90;;;;;;5070712;28;20165;-61
2024/02/01 03:42:47;;;;;;;8.82;5.93;;;9.00;99.90;;;;;;5071932;28;20252;-61
2024/02/01 03:45:13;;;;;;;7.45;5.85;;;9.10;99.90;;;;;;5072035;28;20647;-61
2024/02/01 03:47:39;;;;;;;7.45;5.88;;;9.10;99.90;;;;;;5071613;28;20212;-61
2024/02/01 03:50:08;;;;;;;7.03;4.87;;;9.10;99.90;;;;;;5071621;28;20213;-61
2024/02/01 03:52:38;;;;;;;10.52;5.70;;;8.90;99.90;;;;;;5071429;28;20170;-61
2024/02/01 03:55:16;;;;;;;8.95;5.53;;;8.70;99.90;;;;;;5071579;28;20256;-61
2024/02/01 03:57:47;;;;;;;8.57;5.97;;;8.80;99.90;;;;;;5053752;28;20197;-61
2024/02/01 04:00:30;;;;;;;7.35;5.03;;;8.90;99.90;;;;;;5072084;28;20185;-61
2024/02/01 04:03:03;;;;;;;8.07;6.35;;;9.00;99.90;;;;;;5071557;28;20654;-61
2024/02/01 04:05:36;;;;;;;6.38;5.50;;;8.90;99.90;;;;;;5071579;28;20590;-61
2024/02/01 04:08:17;;;;;;;7.63;5.80;;;8.70;99.90;;;;;;5071700;28;20201;-61
2024/02/01 04:10:45;;;;;;;6.35;5.50;;;8.80;99.90;;;;;;5071491;28;20221;-61
2024/02/01 04:13:10;;;;;;;7.30;5.53;;;8.80;99.90;;;;;;5071435;28;20209;-61
2024/02/01 04:15:36;;;;;;;8.87;5.70;;;8.80;99.90;;;;;;5071473;28;20251;-61
2024/02/01 04:18:04;;;;;;;5.80;5.20;;;8.80;99.90;;;;;;5071415;28;20205;-61
2024/02/01 04:20:35;;;;;;;10.13;6.43;;;8.80;99.90;;;;;;5071418;28;20174;-61
2024/02/01 04:23:01;;;;;;;6.90;5.97;;;8.70;99.90;;;;;;5071236;28;20180;-61
2024/02/01 04:25:26;;;;;;;9.10;6.73;;;8.70;99.90;;;;;;5071379;28;20177;-61
2024/02/01 04:27:53;;;;;;;7.30;6.27;;;8.70;99.90;;;;;;5071209;28;20209;-61
2024/02/01 04:30:20;;;;;;;11.38;6.95;;;8.50;99.90;;;;;;5071067;28;20281;-61
2024/02/01 04:32:47;;;;;;;8.73;7.45;;;8.60;99.90;;;;;;5071283;28;20239;-61
2024/02/01 04:35:14;;;;;;;15.95;7.70;;;8.60;99.90;;;;;;5071245;28;20204;-61
2024/02/01 04:37:44;;;;;;;6.28;5.25;;;8.50;99.90;;;;;;5071343;28;20189;-61
2024/02/01 04:40:11;;;;;;;9.45;6.47;;;8.40;99.90;;;;;;5071184;28;20552;-61
2024/02/01 04:42:37;;;;;;;8.52;6.15;;;8.30;99.90;;;;;;5070976;28;20212;-61
2024/02/01 04:45:04;;;;;;;13.50;7.70;;;8.30;99.90;;;;;;5071011;28;20234;-61
2024/02/01 04:47:34;;;;;;;10.10;8.60;;;8.10;99.90;;;;;;5071098;28;20234;-61
2024/02/01 04:50:00;;;;;;;11.82;8.18;;;8.10;99.90;;;;;;5071211;28;20201;-61
2024/02/01 04:52:26;;;;;;;10.70;8.35;;;8.10;99.90;;;;;;5070924;28;20188;-61
2024/02/01 04:54:53;;;;;;;16.73;10.20;;;8.10;99.90;;;;;;5071139;28;20166;-61
2024/02/01 04:57:19;;;;;;;15.65;9.32;;;8.10;99.90;;;;;;5070967;28;20602;-61
2024/02/01 04:59:45;;;;;;;12.17;8.00;;;8.10;99.90;;;;;;5070950;28;20216;-61
2024/02/01 05:02:15;;;;;;;11.80;8.73;;;8.00;99.90;;;;;;5070984;28;20181;-60
2024/02/01 05:04:41;;;;;;;12.60;7.63;;;7.90;99.90;;;;;;5070916;28;20181;-61
2024/02/01 05:07:07;;;;;;;10.13;7.38;;;8.00;99.90;;;;;;5071341;28;20217;-61
2024/02/01 05:09:37;;;;;;;12.97;8.50;;;8.10;99.90;;;;;;5070830;28;20239;-61
2024/02/01 05:12:06;;;;;;;15.95;8.18;;;8.10;99.90;;;;;;5070648;28;20238;-61
2024/02/01 05:14:32;;;;;;;13.05;8.90;;;8.20;99.90;;;;;;5072222;28;20209;-61
2024/02/01 05:16:58;;;;;;;7.72;6.95;;;8.10;99.90;;;;;;5074778;28;20181;-61
2024/02/01 05:19:25;;;;;;;19.53;11.73;;;8.00;99.90;;;;;;5074700;28;20496;-61
2024/02/01 05:21:54;;;;;;;20.35;11.95;;;8.20;99.90;;;;;;5074449;28;20177;-61
2024/02/01 05:24:22;;;;;;;13.30;9.07;;;8.30;99.90;;;;;;5075394;28;20521;-61
2024/02/01 05:26:50;;;;;;;10.57;8.05;;;8.40;99.90;;;;;;5074481;28;20212;-61
2024/02/01 05:29:25;;;;;;;12.05;7.45;;;8.50;99.90;;;;;;5074354;28;20348;-61
2024/02/01 05:31:54;;;;;;;16.50;8.57;;;8.50;99.90;;;;;;5074337;28;20635;-61
2024/02/01 05:34:21;;;;;;;9.30;8.13;;;8.50;99.90;;;;;;5074281;28;20177;-61
2024/02/01 05:36:47;;;;;;;9.40;7.90;;;8.50;99.90;;;;;;5074323;28;20233;-61
2024/02/01 05:39:26;;;;;;;14.77;9.70;;;8.50;99.90;;;;;;5074263;28;20200;-61
2024/02/01 05:41:58;;;;;;;9.27;7.18;;;8.50;99.90;;;;;;5074003;28;20209;-61
2024/02/01 05:44:25;;;;;;;8.55;7.68;;;8.60;99.90;;;;;;5074151;28;20279;-61
2024/02/01 05:46:55;;;;;;;13.23;8.98;;;8.60;99.90;;;;;;5074200;28;20795;-61
2024/02/01 05:49:26;;;;;;;8.75;5.97;;;8.60;99.90;;;;;;5074033;28;20196;-61
2024/02/01 05:51:53;;;;;;;8.38;7.53;;;8.50;99.90;;;;;;5074023;28;20654;-61
2024/02/01 05:54:20;;;;;;;17.23;7.55;;;8.60;99.90;;;;;;5073898;28;20193;-61
2024/02/01 05:56:49;;;;;;;6.88;6.15;;;8.50;99.90;;;;;;5073323;28;20217;-61
2024/02/01 05:59:16;;;;;;;7.53;6.30;;;8.60;99.90;;;;;;5075676;28;20185;-61
2024/02/01 06:01:43;;;;;;;9.20;7.43;;;8.60;99.90;;;;;;5085449;28;20161;-61
2024/02/01 06:04:10;;;;;;;10.02;8.05;;;8.60;99.90;;;;;;5093907;28;20177;-61
2024/02/01 06:06:43;;;;;;;7.43;6.68;;;8.50;99.90;;;;;;5094069;28;20192;-61
2024/02/01 06:09:11;;;;;;;6.93;6.22;;;8.60;99.90;;;;;;5083957;28;20263;-60
2024/02/01 06:11:45;;;;;;;7.18;6.28;;;8.50;99.90;;;;;;5093851;28;20211;-60
2024/02/01 06:14:15;;;;;;;9.55;7.30;;;8.50;99.90;;;;;;5093772;28;20183;-60
2024/02/01 06:16:43;;;;;;;9.38;7.03;;;8.60;99.90;;;;;;5093696;28;20200;-60
2024/02/01 06:19:09;;;;;;;10.63;7.95;;;8.50;99.90;;;;;;5094012;28;20179;-60
2024/02/01 06:21:34;;;;;;;9.90;6.73;;;8.50;99.90;;;;;;5093624;28;20176;-60
2024/02/01 06:24:00;;;;;;;12.30;7.97;;;8.40;99.90;;;;;;5093688;28;20445;-60
2024/02/01 06:26:27;;;;;;;10.20;7.50;;;8.20;99.90;;;;;;5093303;28;20718;-60
2024/02/01 06:28:59;;;;;;;9.07;7.10;;;8.20;99.90;;;;;;5093639;28;20600;-60
2024/02/01 06:31:26;;;;;;;8.35;7.07;;;8.20;99.90;;;;;;5093422;28;20272;-60
2024/02/01 06:33:53;;;;;;;8.15;7.10;;;8.20;99.90;;;;;;5093434;28;20165;-60
2024/02/01 06:36:19;;;;;;;12.50;7.57;;;8.20;99.90;;;;;;5093422;28;20198;-60
2024/02/01 06:44:21;;;;;;;5.78;4.10;;;7.90;99.90;;;;;;5084679;28;20704;-60
2024/02/01 06:54:55;;;;;;;6.22;5.18;;;7.90;99.90;;;;;;5081777;28;20203;-61
2024/02/01 06:57:22;;;;;;;5.35;4.15;;;8.00;99.90;;;;;;5073177;28;20650;-60
2024/02/01 07:05:21;;;;;;;8.00;4.13;;;8.20;99.90;;;;;;5064089;28;20329;-61
2024/02/01 07:07:50;;;;;;;4.85;4.03;;;8.10;99.90;;;;;;5078452;28;20674;-60
2024/02/01 07:10:21;;;;;;;9.10;4.95;;;8.10;99.90;;;;;;5084138;28;20684;-61
2024/02/01 07:15:31;;;;;;;6.10;4.05;;;8.20;99.90;;;;;;5090263;28;20182;-60
2024/02/01 07:18:14;;;;;;;5.90;3.47;;;8.30;99.90;;;;;;5066046;28;20201;-61
2024/02/01 07:20:46;;;;;;;4.60;4.22;;;8.20;99.90;;;;;;5084150;28;20418;-60
2024/02/01 07:25:49;;;;;;;3.22;2.92;;;8.30;99.90;;;;;;5078485;28;20188;-65
2024/02/01 07:58:32;;;;;;;4.10;2.87;;;12.60;94.30;;;;;;5078313;28;20425;-66
2024/02/01 08:01:00;;;;;;;3.30;3.10;;;12.60;93.30;;;;;;5074871;28;20431;-66
2024/02/01 08:08:37;;;;;;;7.00;4.50;;;12.50;92.50;;;;;;5077074;28;20461;-62
2024/02/01 08:11:04;;;;;;;3.80;3.40;;;12.10;92.70;;;;;;5080919;28;20404;-62
2024/02/01 08:13:30;;;;;;;3.73;2.90;;;11.60;93.00;;;;;;5082951;28;20758;-62
2024/02/01 08:15:56;;;;;;;5.73;4.13;;;11.10;94.00;;;;;;5082758;28;20470;-62
2024/02/01 08:18:26;;;;;;;5.33;4.83;;;10.70;94.70;;;;;;5081127;28;20451;-62
2024/02/01 08:20:53;;;;;;;4.22;3.60;;;10.40;95.30;;;;;;5079462;28;20412;-62
2024/02/01 08:23:19;;;;;;;9.35;4.10;;;10.00;96.10;;;;;;5050969;28;20206;-62
2024/02/01 08:25:46;;;;;;;6.37;4.83;;;9.80;97.10;;;;;;5051261;28;20182;-62
2024/02/01 08:28:12;;;;;;;5.20;4.65;;;9.60;97.60;;;;;;5072215;22;20503;-62
2024/02/01 08:30:38;;;;;;;7.30;4.23;;;9.30;98.20;;;;;;5051641;28;20205;-62
2024/02/01 08:33:04;;;;;;;5.03;4.53;;;9.20;99.00;;;;;;5051248;28;20164;-62
2024/02/01 08:35:33;;;;;;;4.60;3.67;;;8.80;99.70;;;;;;5051641;28;20776;-62
2024/02/01 08:38:00;;;;;;;4.95;3.65;;;8.90;99.90;;;;;;5051512;28;20202;-62
2024/02/01 08:40:27;;;;;;;8.23;3.00;;;8.80;99.90;;;;;;5051355;28;20216;-62
2024/02/01 08:42:59;;;;;;;4.83;3.00;;;8.60;99.90;;;;;;5051311;28;20166;-62
2024/02/01 08:45:27;;;;;;;5.47;3.88;;;8.50;99.90;;;;;;5051564;28;20197;-62
2024/02/01 08:47:54;;;;;;;3.83;2.97;;;8.50;99.90;;;;;;5052080;28;20230;-61
2024/02/01 08:50:19;;;;;;;3.88;3.15;;;8.50;99.90;;;;;;5055535;28;20683;-62
2024/02/01 08:52:48;;;;;;;5.17;2.87;;;8.50;99.90;;;;;;5055215;28;20216;-62
2024/02/01 08:55:17;;;;;;;4.20;2.47;;;8.50;99.90;;;;;;5055721;28;20556;-62
2024/02/01 08:57:44;;;;;;;3.08;2.28;;;8.50;99.90;;;;;;5055581;28;20182;-62
2024/02/01 09:00:21;;;;;;;4.45;3.50;;;8.50;99.90;;;;;;5055447;28;20181;-62
2024/02/01 09:03:03;;;;;;;3.30;2.63;;;8.40;99.90;;;;;;5055245;28;20688;-62
2024/02/01 09:05:33;;;;;;;5.22;3.20;;;8.40;99.90;;;;;;5055352;28;20181;-62
2024/02/01 09:08:02;;;;;;;3.35;2.65;;;8.40;99.90;;;;;;5062880;28;20232;-62
2024/02/01 09:10:28;;;;;;;6.40;3.58;;;8.40;99.90;;;;;;5059976;28;20231;-62
2024/02/01 09:12:54;;;;;;;2.35;2.15;;;8.40;99.90;;;;;;5062974;28;20170;-62
2024/02/01 09:15:19;;;;;;;2.13;1.90;;;8.30;99.90;;;;;;5075222;28;20695;-62
2024/02/01 09:17:46;;;;;;;3.30;2.30;;;8.20;99.90;;;;;;5074407;28;20221;-62
2024/02/01 09:20:20;;;;;;;2.65;2.42;;;8.10;99.90;;;;;;5075208;28;20613;-63
2024/02/01 09:22:51;;;;;;;3.13;2.13;;;8.20;99.90;;;;;;5074762;28;20204;-63
2024/02/01 09:25:21;;;;;;;4.13;2.72;;;8.30;99.90;;;;;;5075045;28;20659;-63
2024/02/01 09:27:48;;;;;;;4.72;2.83;;;8.20;99.90;;;;;;5074563;28;20255;-62
2024/02/01 09:30:17;;;;;;;2.78;2.10;;;8.30;99.90;;;;;;5074780;28;20675;-64
2024/02/01 09:32:44;;;;;;;2.17;2.03;;;8.30;99.90;;;;;;5074765;28;20185;-64
2024/02/01 09:35:12;;;;;;;3.65;3.35;;;8.30;99.90;;;;;;5074815;28;20158;-63
2024/02/01 09:37:37;;;;;;;3.15;2.83;;;8.30;99.90;;;;;;5074772;28;20569;-63
2024/02/01 09:40:05;;;;;;;2.20;2.10;;;8.40;99.90;;;;;;5074611;28;20173;-63
2024/02/01 09:42:33;;;;;;;1.98;1.80;;;8.50;99.90;;;;;;5074379;28;20173;-64
2024/02/01 09:45:00;;;;;;;1.85;1.63;;;8.60;99.90;;;;;;5074497;28;20263;-62
2024/02/01 09:47:27;;;;;;;1.92;1.20;;;8.60;99.90;;;;;;5074530;28;20317;-63
2024/02/01 09:49:58;;;;;;;1.80;1.70;;;8.60;99.90;;;;;;5074555;28;20218;-62
2024/02/01 09:52:24;;;;;;;2.20;1.70;;;8.60;99.90;;;;;;5071474;28;20282;-62
2024/02/01 09:54:49;;;;;;;2.00;1.80;;;8.60;99.90;;;;;;5065822;28;20223;-63
2024/02/01 09:57:18;;;;;;;4.03;1.87;;;8.60;99.90;;;;;;5061893;28;20646;-63
2024/02/01 09:59:44;;;;;;;2.17;1.60;;;8.60;99.90;;;;;;5063243;28;20573;-63
2024/02/01 10:02:12;;;;;;;2.03;1.90;;;8.50;99.90;;;;;;5072684;28;20181;-63
2024/02/01 10:04:37;;;;;;;2.58;2.38;;;8.50;99.90;;;;;;5074303;28;20600;-63
2024/02/01 10:07:03;;;;;;;3.43;2.30;;;8.50;99.90;;;;;;5074419;28;20178;-63
2024/02/01 10:09:29;;;;;;;1.40;1.30;;;8.50;99.90;;;;;;5074026;28;20200;-63
2024/02/01 10:11:55;;;;;;;1.93;1.57;;;8.60;99.90;;;;;;5073837;28;20169;-63
2024/02/01 10:14:34;;;;;;;1.02;0.80;;;8.50;99.90;;;;;;5073991;28;20177;-68
2024/02/01 10:17:06;;;;;;;1.33;1.00;;;8.60;99.90;;;;;;5061305;28;20654;-63
2024/02/01 10:19:34;;;;;;;2.25;1.20;;;8.60;99.90;;;;;;5061026;28;20198;-62
2024/02/01 10:22:08;;;;;;;3.00;2.75;;;8.80;99.90;;;;;;5061562;28;20182;-62
2024/02/01 10:24:45;;;;;;;1.77;1.63;;;8.90;99.90;;;;;;5061860;28;20181;-62
2024/02/01 10:27:12;;;;;;;1.27;1.20;;;8.90;99.90;;;;;;5071289;28;20272;-63
2024/02/01 10:29:42;;;;;;;1.00;1.00;;;8.90;99.90;;;;;;5073424;28;20247;-62
2024/02/01 10:32:12;;;;;;;1.45;1.35;;;8.90;99.90;;;;;;5069157;28;20265;-63
2024/02/01 10:34:44;;;;;;;1.08;1.08;;;9.00;99.90;;;;;;5049023;28;20181;-62
2024/02/01 10:37:13;;;;;;;1.00;0.90;;;9.00;99.90;;;;;;5069529;28;20682;-62
2024/02/01 10:39:43;;;;;;;1.55;0.90;;;9.10;99.90;;;;;;5067997;28;20231;-62
2024/02/01 10:42:11;;;;;;;6.82;6.10;;;9.10;99.90;;;;;;5073494;28;20170;-62
2024/02/01 10:44:39;;;;;;;1.75;1.25;;;9.00;99.90;;;;;;5073596;28;20554;-63
2024/02/01 10:47:16;;;;;;;2.35;1.20;;;9.00;99.90;;;;;;5073469;28;20170;-62
2024/02/01 10:49:52;;;;;;;1.88;1.38;;;9.10;99.90;;;;;;5073198;28;20658;-62
2024/02/01 10:52:21;;;;;;;1.83;1.10;;;9.00;99.90;;;;;;5073092;28;20551;-62
2024/02/01 10:54:51;;;;;;;1.17;1.17;;;9.00;99.90;;;;;;5069203;28;20185;-62
2024/02/01 10:57:18;;;;;;;1.40;1.30;;;9.00;99.90;;;;;;5056397;28;20711;-63
2024/02/01 10:59:49;;;;;;;2.28;1.40;;;9.00;99.90;;;;;;5064610;28;20281;-62
2024/02/01 11:02:15;;;;;;;2.95;2.20;;;9.00;99.90;;;;;;5072964;28;20181;-63
2024/02/01 11:04:46;;;;;;;8.80;5.93;;;8.90;99.90;;;;;;5073156;28;20551;-62
2024/02/01 11:07:20;;;;;;;3.40;2.88;;;8.70;99.90;;;;;;5062258;28;20626;-64
2024/02/01 11:09:48;;;;;;;1.48;1.30;;;8.60;99.90;;;;;;5050549;28;20253;-65
2024/02/01 11:12:22;;;;;;;2.15;1.40;;;8.30;99.90;;;;;;5051597;28;20185;-66
2024/02/01 11:14:48;;;;;;;5.60;4.63;;;8.20;99.90;;;;;;5059922;28;20210;-63
2024/02/01 11:17:23;;;;;;;3.28;2.42;;;8.40;99.90;;;;;;5048810;28;20197;-65
2024/02/01 11:19:51;;;;;;;2.35;2.05;;;8.60;99.90;;;;;;5048125;28;20247;-64
2024/02/01 11:22:18;;;;;;;5.68;4.78;;;8.60;99.90;;;;;;5052201;28;20182;-63
2024/02/01 11:24:44;;;;;;;2.35;1.80;;;8.70;99.90;;;;;;5053895;28;20169;-62
2024/02/01 11:27:15;;;;;;;2.30;1.70;;;8.70;99.90;;;;;;5061209;28;20237;-63
2024/02/01 11:29:46;;;;;;;1.30;1.10;;;8.50;99.90;;;;;;5060255;28;20471;-62
2024/02/01 11:32:19;;;;;;;2.65;1.65;;;8.60;99.90;;;;;;5061456;28;20184;-63
2024/02/01 11:34:50;;;;;;;1.67;1.58;;;8.50;99.90;;;;;;5072322;28;20170;-63
2024/02/01 11:37:24;;;;;;;6.03;4.30;;;8.40;99.90;;;;;;5063004;28;20922;-63
2024/02/01 11:39:52;;;;;;;1.63;1.52;;;8.40;99.90;;;;;;5063274;28;20183;-63
2024/02/01 11:42:21;;;;;;;1.23;1.20;;;8.30;99.90;;;;;;5063002;28;20184;-66
2024/02/01 11:44:48;;;;;;;3.25;1.83;;;8.20;99.90;;;;;;5072195;28;20609;-63
2024/02/01 11:47:14;;;;;;;1.30;1.20;;;8.10;99.90;;;;;;5069561;28;20178;-63
2024/02/01 11:49:41;;;;;;;2.47;2.00;;;8.20;99.90;;;;;;5063597;28;20193;-63
2024/02/01 11:52:32;;;;;;;1.98;1.10;;;8.40;99.90;;;;;;5071792;28;20418;-63
2024/02/01 11:54:58;;;;;;;1.48;1.25;;;8.60;99.90;;;;;;5071453;28;20651;-62
2024/02/01 11:57:29;;;;;;;3.10;1.23;;;8.60;99.90;;;;;;5072129;28;20520;-62
2024/02/01 11:59:55;;;;;;;2.85;1.77;;;8.40;99.90;;;;;;5072067;28;20562;-62
2024/02/01 12:02:22;;;;;;;1.40;1.30;;;8.40;99.90;;;;;;5072028;28;20222;-63
2024/02/01 12:04:48;;;;;;;3.20;1.65;;;8.50;99.90;;;;;;5072144;28;20407;-63
2024/02/01 12:07:18;;;;;;;3.97;3.43;;;8.70;99.90;;;;;;5072117;28;20253;-63
2024/02/01 12:09:47;;;;;;;1.70;1.60;;;8.70;99.90;;;;;;5071799;28;20447;-62
2024/02/01 12:12:16;;;;;;;6.28;4.38;;;8.90;99.90;;;;;;5071591;28;20181;-63
2024/02/01 12:14:42;;;;;;;1.80;1.70;;;9.00;99.90;;;;;;5071850;28;20180;-63
2024/02/01 12:17:08;;;;;;;1.80;1.67;;;9.20;99.90;;;;;;5072020;28;20188;-63
2024/02/01 12:19:37;;;;;;;5.83;5.37;;;9.30;99.90;;;;;;5071603;28;20671;-63
2024/02/01 12:22:13;;;;;;;1.40;1.30;;;9.30;99.90;;;;;;5071608;28;20184;-63
2024/02/01 12:24:40;;;;;;;4.60;4.18;;;9.20;99.90;;;;;;5071969;28;20181;-63
2024/02/01 12:27:06;;;;;;;2.15;1.23;;;9.20;99.90;;;;;;5071737;28;20184;-63
2024/02/01 12:29:33;;;;;;;1.50;1.13;;;9.30;99.90;;;;;;5071373;28;20582;-63
2024/02/01 12:31:59;;;;;;;1.95;1.65;;;9.40;99.90;;;;;;5071569;28;20662;-63
2024/02/01 12:34:25;;;;;;;2.53;2.15;;;9.50;99.90;;;;;;5071476;28;20264;-63
2024/02/01 12:36:52;;;;;;;1.30;1.20;;;9.50;99.90;;;;;;5071688;28;20166;-63
2024/02/01 12:39:18;;;;;;;1.42;0.98;;;9.40;99.90;;;;;;5071517;28;20280;-63
2024/02/01 12:41:48;;;;;;;1.40;1.17;;;9.30;99.90;;;;;;5071415;28;20545;-63
2024/02/01 12:44:13;;;;;;;0.93;0.93;;;9.30;99.90;;;;;;5071357;28;20554;-62
2024/02/01 12:46:43;;;;;;;8.93;5.77;;;9.30;99.90;;;;;;5071606;28;20172;-63
2024/02/01 12:49:18;;;;;;;6.88;3.53;;;9.30;99.90;;;;;;5071213;28;20276;-63
2024/02/01 12:51:44;;;;;;;5.65;2.70;;;9.30;99.90;;;;;;5071463;28;20187;-63
2024/02/01 12:54:10;;;;;;;8.82;4.88;;;9.30;99.90;;;;;;5071277;28;20169;-62
2024/02/01 12:56:39;;;;;;;8.83;6.60;;;9.30;99.90;;;;;;5071337;28;20244;-63
2024/02/01 12:59:04;;;;;;;6.05;4.05;;;9.10;99.90;;;;;;5071333;28;20209;-63
2024/02/01 13:01:33;;;;;;;13.70;8.47;;;9.00;99.90;;;;;;5071372;28;20184;-63
2024/02/01 13:04:00;;;;;;;3.88;2.22;;;9.00;99.90;;;;;;5071232;28;20177;-63
2024/02/01 13:06:25;;;;;;;3.22;1.63;;;9.10;99.90;;;;;;5071285;28;20181;-63
2024/02/01 13:08:54;;;;;;;3.47;1.60;;;9.20;99.90;;;;;;5071123;28;20557;-63
2024/02/01 13:11:25;;;;;;;1.30;1.05;;;9.20;99.90;;;;;;5071244;28;20638;-63
2024/02/01 13:14:00;;;;;;;2.25;1.65;;;9.20;99.90;;;;;;5071193;28;20227;-63
2024/02/01 13:16:27;;;;;;;1.25;1.15;;;9.20;99.90;;;;;;5071227;28;20183;-63
2024/02/01 13:18:56;;;;;;;2.38;1.63;;;9.40;99.90;;;;;;5071084;28;20189;-63
2024/02/01 13:21:22;;;;;;;6.85;5.28;;;9.50;99.90;;;;;;5070952;28;20184;-63
2024/02/01 13:23:48;;;;;;;1.50;1.40;;;9.50;99.90;;;;;;5071079;28;20169;-63
2024/02/01 13:26:14;;;;;;;1.60;1.33;;;9.40;99.90;;;;;;5071636;28;20230;-62
2024/02/01 13:28:40;;;;;;;5.22;4.55;;;9.40;99.90;;;;;;5071024;28;20205;-63
2024/02/01 13:31:06;;;;;;;1.52;1.15;;;9.50;99.90;;;;;;5070921;28;20174;-62
2024/02/01 13:33:35;;;;;;;1.50;1.33;;;9.60;99.90;;;;;;5070970;28;20164;-63
2024/02/01 13:36:02;;;;;;;2.75;1.63;;;9.70;99.90;;;;;;5073265;28;20197;-63
2024/02/01 13:38:28;;;;;;;1.98;0.70;;;9.80;99.90;;;;;;5074568;28;20679;-63
2024/02/01 13:40:54;;;;;;;3.13;2.63;;;9.90;99.90;;;;;;5074585;28;20178;-63
2024/02/01 13:43:20;;;;;;;1.43;1.33;;;9.90;99.90;;;;;;5074673;28;20174;-63
2024/02/01 13:45:46;;;;;;;1.87;1.30;;;10.00;99.90;;;;;;5074979;28;20419;-63
2024/02/01 13:48:11;;;;;;;2.07;0.90;;;10.00;99.90;;;;;;5074537;28;20798;-63
2024/02/01 13:50:38;;;;;;;1.20;1.10;;;10.10;99.90;;;;;;5074760;28;20454;-63
2024/02/01 13:53:04;;;;;;;1.13;0.77;;;10.00;99.90;;;;;;5074184;28;20203;-63
2024/02/01 13:55:30;;;;;;;1.30;0.93;;;9.80;99.90;;;;;;5074427;28;20245;-63
2024/02/01 13:57:56;;;;;;;2.17;1.70;;;9.80;99.90;;;;;;5074298;28;20427;-63